Time;durP1;ratioP1;P1;durP2;ratioP2;P2;SDS_P1;SDS_P2;PMS_P1;PMS_P2;Temp;Humidity;BMP_temperature;BMP_pressure;BME280_temperature;BME280_humidity;BME280_pressure;Samples;Min_cycle;Max_cycle;Signal;HPM_P1;HPM_P2
2021/05/28 00:01:45;;;;;;;58.10;3.33;;;11.60;1.00;;;;;;5014897;28;20568;-67
2021/05/28 00:04:12;;;;;;;58.20;2.90;;;11.60;1.00;;;;;;5014935;28;20540;-66
2021/05/28 00:06:38;;;;;;;57.90;3.00;;;11.60;1.00;;;;;;5014497;28;20548;-67
2021/05/28 00:09:06;;;;;;;57.87;3.50;;;11.60;1.00;;;;;;5014599;28;20520;-67
2021/05/28 00:11:32;;;;;;;57.87;3.07;;;11.60;1.00;;;;;;5014674;28;20533;-68
2021/05/28 00:13:58;;;;;;;57.63;2.83;;;11.60;1.00;;;;;;5014712;28;20519;-68
2021/05/28 00:16:25;;;;;;;57.40;2.80;;;11.60;1.00;;;;;;5014401;28;20577;-68
2021/05/28 00:18:51;;;;;;;57.57;2.57;;;11.60;1.00;;;;;;5014458;28;21022;-68
2021/05/28 00:21:19;;;;;;;58.20;3.43;;;11.60;1.00;;;;;;5014478;28;20486;-68
2021/05/28 00:23:46;;;;;;;57.37;2.40;;;11.60;1.00;;;;;;5014302;28;20461;-68
2021/05/28 00:26:13;;;;;;;58.27;2.90;;;11.60;1.00;;;;;;5012765;28;20456;-69
2021/05/28 00:28:39;;;;;;;58.70;2.90;;;11.50;1.00;;;;;;5014034;28;21030;-68
2021/05/28 00:31:06;;;;;;;59.03;3.17;;;11.50;1.00;;;;;;5013963;28;20540;-68
2021/05/28 00:33:32;;;;;;;57.80;2.60;;;11.50;1.00;;;;;;5014364;28;20957;-67
2021/05/28 00:35:58;;;;;;;58.10;3.40;;;11.60;1.00;;;;;;5014341;28;20561;-67
2021/05/28 00:38:26;;;;;;;57.87;2.77;;;11.60;1.00;;;;;;5013715;28;20557;-68
2021/05/28 00:40:52;;;;;;;58.00;2.70;;;11.60;1.00;;;;;;5013953;28;20568;-67
2021/05/28 00:43:18;;;;;;;57.57;2.67;;;11.60;1.00;;;;;;5014182;28;20541;-67
2021/05/28 00:45:45;;;;;;;59.03;3.57;;;11.60;1.00;;;;;;5014168;28;20513;-68
2021/05/28 00:48:11;;;;;;;57.43;2.37;;;11.60;1.00;;;;;;5013743;28;20505;-68
2021/05/28 00:50:37;;;;;;;58.87;3.90;;;11.60;1.00;;;;;;5013942;28;20840;-68
2021/05/28 00:53:04;;;;;;;57.50;2.43;;;11.60;1.00;;;;;;5014234;28;20482;-68
2021/05/28 00:55:32;;;;;;;59.30;3.50;;;11.60;1.00;;;;;;5014004;28;20449;-67
2021/05/28 00:57:58;;;;;;;57.37;2.70;;;11.60;1.00;;;;;;5012370;28;20572;-68
2021/05/28 01:00:27;;;;;;;58.27;3.30;;;11.60;1.00;;;;;;5013449;28;20474;-68
2021/05/28 01:02:54;;;;;;;58.07;2.90;;;11.50;1.00;;;;;;5014119;28;20893;-68
2021/05/28 01:05:20;;;;;;;58.30;2.80;;;11.50;1.00;;;;;;5013491;28;20454;-67
2021/05/28 01:07:47;;;;;;;57.67;2.87;;;11.60;1.00;;;;;;5013178;28;20470;-68
2021/05/28 01:10:14;;;;;;;57.53;2.80;;;11.50;1.00;;;;;;5013472;28;20452;-68
2021/05/28 01:12:42;;;;;;;57.57;3.00;;;11.50;1.00;;;;;;5013697;28;20536;-67
2021/05/28 01:15:10;;;;;;;59.57;2.73;;;11.50;1.00;;;;;;5013509;28;20454;-68
2021/05/28 01:17:37;;;;;;;58.00;3.20;;;11.50;1.00;;;;;;5013118;28;20926;-67
2021/05/28 01:20:05;;;;;;;57.97;3.03;;;11.50;1.00;;;;;;5013166;28;20529;-68
2021/05/28 01:22:32;;;;;;;57.53;2.80;;;11.50;1.00;;;;;;5013324;28;20488;-67
2021/05/28 01:25:00;;;;;;;58.00;2.70;;;11.50;1.00;;;;;;5013368;28;20536;-68
2021/05/28 01:27:27;;;;;;;57.67;3.23;;;11.50;1.00;;;;;;5012989;28;20621;-68
2021/05/28 01:29:53;;;;;;;57.37;2.67;;;11.50;1.00;;;;;;5012334;28;20482;-67
2021/05/28 01:32:20;;;;;;;57.87;3.00;;;11.50;1.00;;;;;;5012864;28;20446;-67
2021/05/28 01:34:46;;;;;;;57.70;2.90;;;11.50;1.00;;;;;;5012905;28;20903;-68
2021/05/28 01:37:13;;;;;;;57.47;2.80;;;11.50;1.00;;;;;;5012890;28;20477;-68
2021/05/28 01:39:45;;;;;;;57.90;3.17;;;11.50;1.00;;;;;;5013231;28;20552;-68
2021/05/28 01:42:11;;;;;;;57.37;2.70;;;11.50;1.00;;;;;;5012259;28;20580;-68
2021/05/28 01:44:38;;;;;;;58.90;3.30;;;11.50;1.00;;;;;;5012861;28;20537;-68
2021/05/28 01:47:04;;;;;;;57.70;2.90;;;11.50;1.00;;;;;;5012373;28;21116;-68
2021/05/28 01:49:30;;;;;;;57.67;2.70;;;11.50;1.00;;;;;;5012967;28;20536;-68
2021/05/28 01:51:57;;;;;;;57.37;2.80;;;11.50;1.00;;;;;;5013002;28;20497;-68
2021/05/28 01:54:23;;;;;;;58.90;3.23;;;11.50;1.00;;;;;;5012809;28;20528;-68
2021/05/28 01:56:51;;;;;;;58.03;3.33;;;11.50;1.00;;;;;;5012529;28;20485;-68
2021/05/28 01:59:23;;;;;;;57.50;2.90;;;11.50;1.00;;;;;;5012444;28;20473;-68
2021/05/28 02:01:49;;;;;;;59.77;2.83;;;11.50;1.00;;;;;;4995697;28;20493;-68
2021/05/28 02:04:16;;;;;;;57.87;2.67;;;11.50;1.00;;;;;;5012824;28;20548;-68
2021/05/28 02:06:42;;;;;;;61.80;2.97;;;11.50;1.00;;;;;;5012427;28;20576;-68
2021/05/28 02:09:09;;;;;;;58.10;2.80;;;11.50;1.00;;;;;;5012704;28;20484;-67
2021/05/28 02:11:35;;;;;;;58.37;3.23;;;11.50;1.00;;;;;;5012570;28;20525;-68
2021/05/28 02:14:03;;;;;;;57.70;2.80;;;11.50;1.00;;;;;;5012485;28;20527;-67
2021/05/28 02:16:30;;;;;;;58.20;2.70;;;11.50;1.00;;;;;;5012359;28;20454;-68
2021/05/28 02:18:57;;;;;;;57.67;2.80;;;11.50;1.00;;;;;;5012675;28;20945;-68
2021/05/28 02:21:23;;;;;;;57.70;3.00;;;11.50;1.00;;;;;;5012499;28;20482;-68
2021/05/28 02:23:49;;;;;;;57.30;2.60;;;11.50;1.00;;;;;;5012193;28;20486;-68
2021/05/28 02:26:16;;;;;;;58.30;2.73;;;11.50;1.00;;;;;;5012132;28;20503;-68
2021/05/28 02:28:42;;;;;;;57.27;2.23;;;11.50;1.00;;;;;;5011989;28;21008;-68
2021/05/28 02:31:09;;;;;;;57.30;2.73;;;11.50;1.00;;;;;;5011005;28;20450;-68
2021/05/28 02:33:36;;;;;;;57.90;2.70;;;11.50;1.00;;;;;;5012012;28;20533;-68
2021/05/28 02:36:03;;;;;;;57.37;2.57;;;11.50;1.00;;;;;;5011880;28;20465;-67
2021/05/28 02:38:29;;;;;;;59.33;3.10;;;11.50;1.00;;;;;;5011991;28;20490;-68
2021/05/28 02:40:56;;;;;;;57.57;2.80;;;11.40;1.00;;;;;;5012052;28;21009;-68
2021/05/28 02:43:22;;;;;;;58.27;3.20;;;11.40;1.00;;;;;;5011962;28;20552;-68
2021/05/28 02:45:49;;;;;;;57.70;3.20;;;11.40;1.00;;;;;;5012182;28;20812;-68
2021/05/28 02:48:16;;;;;;;57.50;2.40;;;11.40;1.00;;;;;;5011821;28;20465;-68
2021/05/28 02:50:42;;;;;;;58.20;3.57;;;11.40;1.00;;;;;;5012041;28;20460;-68
2021/05/28 02:53:10;;;;;;;59.10;3.97;;;11.40;1.00;;;;;;5012331;28;20544;-68
2021/05/28 02:55:38;;;;;;;57.90;2.70;;;11.40;1.00;;;;;;5018361;28;20460;-68
2021/05/28 02:58:04;;;;;;;57.97;3.37;;;11.40;1.00;;;;;;5017979;28;20516;-67
2021/05/28 03:00:31;;;;;;;57.40;2.60;;;11.40;1.00;;;;;;5018398;28;20548;-68
2021/05/28 03:02:57;;;;;;;57.17;2.50;;;11.40;1.00;;;;;;5017437;28;20580;-67
2021/05/28 03:05:24;;;;;;;57.70;2.80;;;11.30;1.00;;;;;;5018351;28;20454;-67
2021/05/28 03:07:51;;;;;;;57.77;3.00;;;11.30;1.00;;;;;;5018052;28;21075;-67
2021/05/28 03:10:17;;;;;;;57.17;2.50;;;11.30;1.00;;;;;;5018332;28;20454;-68
2021/05/28 03:12:44;;;;;;;59.67;2.80;;;11.30;1.00;;;;;;5018310;28;20544;-68
2021/05/28 03:15:11;;;;;;;57.63;2.87;;;11.30;1.00;;;;;;5018473;28;20540;-68
2021/05/28 03:17:41;;;;;;;58.07;3.33;;;11.30;1.00;;;;;;5018127;28;20897;-68
2021/05/28 03:20:17;;;;;;;58.00;2.97;;;11.20;1.00;;;;;;5018361;28;20453;-67
2021/05/28 03:22:44;;;;;;;57.67;2.93;;;11.20;1.00;;;;;;5018393;28;20489;-67
2021/05/28 03:25:12;;;;;;;57.90;2.77;;;11.20;1.00;;;;;;5018280;28;20922;-67
2021/05/28 03:27:39;;;;;;;57.53;2.70;;;11.20;1.00;;;;;;5018122;28;20556;-68
2021/05/28 03:30:09;;;;;;;58.13;3.30;;;11.20;1.00;;;;;;5018252;28;20532;-68
2021/05/28 03:32:35;;;;;;;57.17;2.60;;;11.20;1.00;;;;;;5017627;28;20533;-68
2021/05/28 03:35:02;;;;;;;58.07;2.70;;;11.20;1.00;;;;;;5016859;28;20879;-67
2021/05/28 03:37:29;;;;;;;57.27;2.70;;;11.20;1.00;;;;;;5017822;28;20571;-68
2021/05/28 03:39:56;;;;;;;58.10;2.70;;;11.10;1.00;;;;;;5018045;28;20459;-68
2021/05/28 03:42:23;;;;;;;57.87;2.80;;;11.10;1.00;;;;;;5018162;28;20954;-68
2021/05/28 03:44:49;;;;;;;57.50;2.77;;;11.10;1.00;;;;;;5018075;28;20556;-67
2021/05/28 03:47:17;;;;;;;58.10;3.10;;;11.10;1.00;;;;;;5017910;28;20552;-68
2021/05/28 03:49:44;;;;;;;59.17;3.27;;;11.10;1.00;;;;;;5018103;28;20477;-68
2021/05/28 03:52:10;;;;;;;57.37;2.60;;;11.10;1.00;;;;;;5017877;28;20477;-68
2021/05/28 03:54:37;;;;;;;57.90;2.97;;;11.10;1.00;;;;;;5018232;28;20449;-68
2021/05/28 03:57:05;;;;;;;59.37;3.10;;;11.00;1.00;;;;;;5017715;28;20557;-67
2021/05/28 03:59:31;;;;;;;58.17;3.20;;;10.90;1.00;;;;;;5017972;28;20501;-67
2021/05/28 04:01:57;;;;;;;57.30;2.47;;;10.90;1.00;;;;;;5017981;28;20489;-68
2021/05/28 04:04:24;;;;;;;58.50;3.57;;;10.90;1.00;;;;;;5017875;28;20448;-67
2021/05/28 04:06:50;;;;;;;57.70;3.03;;;10.80;1.00;;;;;;5014046;28;20501;-68
2021/05/28 04:09:16;;;;;;;57.70;2.60;;;10.80;1.00;;;;;;5014752;28;20968;-67
2021/05/28 04:11:43;;;;;;;57.67;2.80;;;10.80;1.00;;;;;;5014904;28;20466;-68
2021/05/28 04:14:10;;;;;;;57.60;2.50;;;10.90;1.00;;;;;;5014817;28;20533;-68
2021/05/28 04:16:36;;;;;;;58.77;3.23;;;10.90;1.00;;;;;;5014530;28;20938;-68
2021/05/28 04:19:03;;;;;;;57.70;3.10;;;10.90;1.00;;;;;;5014541;28;20537;-68
2021/05/28 04:21:29;;;;;;;57.50;2.50;;;10.90;1.00;;;;;;5014341;28;20485;-68
2021/05/28 04:23:56;;;;;;;57.57;2.50;;;10.90;1.00;;;;;;5014692;28;20537;-68
2021/05/28 04:26:22;;;;;;;57.20;2.30;;;10.90;1.00;;;;;;5014348;28;20536;-67
2021/05/28 04:28:48;;;;;;;57.80;2.97;;;10.90;1.00;;;;;;5014392;28;20509;-68
2021/05/28 04:31:15;;;;;;;57.90;2.50;;;10.90;1.00;;;;;;5014484;28;20477;-68
2021/05/28 04:33:42;;;;;;;57.70;2.70;;;11.00;1.00;;;;;;5014291;28;20536;-68
2021/05/28 04:36:08;;;;;;;57.40;2.40;;;11.00;1.00;;;;;;5013933;28;20474;-67
2021/05/28 04:38:36;;;;;;;57.90;2.90;;;11.00;1.00;;;;;;5014308;28;20883;-68
2021/05/28 04:41:02;;;;;;;59.77;3.10;;;11.10;1.00;;;;;;5014239;28;20458;-68
2021/05/28 04:43:29;;;;;;;57.37;2.50;;;11.10;1.00;;;;;;5014427;28;20529;-67
2021/05/28 04:45:55;;;;;;;58.37;2.80;;;11.20;1.00;;;;;;5014117;28;20533;-68
2021/05/28 04:48:22;;;;;;;57.77;3.33;;;11.30;1.00;;;;;;5013551;28;20881;-68
2021/05/28 04:50:49;;;;;;;58.10;2.93;;;11.30;1.00;;;;;;5013965;28;20556;-67
2021/05/28 04:53:15;;;;;;;61.30;3.00;;;11.40;1.00;;;;;;5014172;28;20537;-67
2021/05/28 04:55:41;;;;;;;57.57;2.43;;;11.50;1.00;;;;;;5013867;28;20537;-68
2021/05/28 04:58:08;;;;;;;57.63;2.70;;;11.60;1.00;;;;;;5014289;28;20487;-68
2021/05/28 05:00:34;;;;;;;57.90;2.90;;;11.60;1.00;;;;;;5013797;28;20457;-68
2021/05/28 05:03:00;;;;;;;59.07;3.07;;;11.60;1.00;;;;;;5013665;28;21224;-68
2021/05/28 05:05:27;;;;;;;57.30;2.43;;;11.70;1.00;;;;;;5013811;28;20536;-67
2021/05/28 05:07:54;;;;;;;58.00;2.67;;;11.80;1.00;;;;;;5013705;28;20627;-67
2021/05/28 05:10:20;;;;;;;57.27;2.90;;;11.90;1.00;;;;;;5013767;28;20533;-68
2021/05/28 05:12:47;;;;;;;57.30;2.60;;;11.90;1.00;;;;;;5013808;28;20542;-68
2021/05/28 05:15:13;;;;;;;58.30;3.47;;;12.00;1.00;;;;;;5013516;28;20536;-68
2021/05/28 05:17:40;;;;;;;57.40;2.70;;;12.00;1.00;;;;;;5012118;28;20470;-69
2021/05/28 05:20:08;;;;;;;57.20;2.60;;;12.10;1.00;;;;;;5013561;28;20561;-68
2021/05/28 05:22:35;;;;;;;58.47;3.00;;;12.20;1.00;;;;;;5013444;28;20493;-68
2021/05/28 05:25:02;;;;;;;57.70;2.73;;;12.30;1.00;;;;;;5013391;28;20541;-68
2021/05/28 05:27:29;;;;;;;58.10;2.80;;;12.30;1.00;;;;;;5013093;28;21005;-68
2021/05/28 05:29:55;;;;;;;57.60;2.90;;;12.40;1.00;;;;;;5013205;28;20550;-68
2021/05/28 05:32:21;;;;;;;57.57;2.60;;;12.50;1.00;;;;;;5013158;28;20949;-68
2021/05/28 05:34:48;;;;;;;57.37;2.50;;;12.50;1.00;;;;;;5013105;28;21021;-68
2021/05/28 05:37:14;;;;;;;57.40;2.67;;;12.60;1.00;;;;;;5013109;28;20560;-68
2021/05/28 05:39:41;;;;;;;58.07;2.83;;;12.70;1.00;;;;;;5013288;28;20537;-68
2021/05/28 05:42:08;;;;;;;57.47;2.77;;;12.80;1.00;;;;;;5013110;28;20482;-68
2021/05/28 05:44:35;;;;;;;58.20;2.80;;;12.80;1.00;;;;;;5012948;28;20533;-69
2021/05/28 05:47:01;;;;;;;57.60;2.63;;;12.80;1.00;;;;;;5012953;28;20488;-68
2021/05/28 05:49:28;;;;;;;57.13;2.50;;;12.90;1.00;;;;;;5013007;28;20454;-68
2021/05/28 05:51:54;;;;;;;57.70;2.57;;;12.90;1.00;;;;;;5013210;28;20454;-68
2021/05/28 05:54:20;;;;;;;57.07;2.70;;;13.00;1.00;;;;;;5012819;28;20448;-68
2021/05/28 05:56:48;;;;;;;61.50;3.67;;;13.00;1.00;;;;;;5012522;28;20567;-68
2021/05/28 05:59:14;;;;;;;57.33;2.87;;;13.10;1.00;;;;;;5021998;28;20460;-68
2021/05/28 06:01:40;;;;;;;58.07;2.87;;;13.10;1.00;;;;;;5015372;28;20486;-68
2021/05/28 06:04:07;;;;;;;57.50;2.70;;;13.20;1.00;;;;;;5011666;28;20500;-68
2021/05/28 06:06:33;;;;;;;57.67;3.00;;;13.30;1.00;;;;;;5012026;28;20478;-69
2021/05/28 06:08:59;;;;;;;57.90;2.70;;;13.40;1.00;;;;;;5012523;28;20534;-68
2021/05/28 06:11:26;;;;;;;57.73;2.80;;;13.50;1.00;;;;;;5012520;28;20456;-68
2021/05/28 06:13:53;;;;;;;57.40;2.60;;;13.60;1.00;;;;;;5012438;28;20552;-68
2021/05/28 06:16:19;;;;;;;57.70;2.67;;;13.60;1.00;;;;;;5012451;28;20542;-68
2021/05/28 06:18:46;;;;;;;58.33;3.50;;;13.70;1.00;;;;;;5012541;28;20569;-68
2021/05/28 06:21:12;;;;;;;57.57;2.87;;;13.70;1.00;;;;;;5012550;28;20531;-68
2021/05/28 06:23:38;;;;;;;58.17;2.97;;;13.70;1.00;;;;;;5012514;28;20939;-68
2021/05/28 06:26:05;;;;;;;57.50;2.60;;;13.80;1.00;;;;;;5012284;28;20891;-68
2021/05/28 06:28:31;;;;;;;57.37;2.70;;;13.90;1.00;;;;;;5011590;28;20985;-68
2021/05/28 06:30:58;;;;;;;57.60;2.60;;;13.90;1.00;;;;;;5012468;28;21049;-68
2021/05/28 06:33:24;;;;;;;58.07;2.90;;;14.00;1.00;;;;;;5012271;28;20489;-69
2021/05/28 06:35:51;;;;;;;58.57;4.70;;;14.10;1.00;;;;;;5012408;28;20475;-69
2021/05/28 06:38:17;;;;;;;58.70;3.40;;;14.20;1.00;;;;;;5012078;28;20902;-69
2021/05/28 06:40:43;;;;;;;57.17;2.70;;;14.30;1.00;;;;;;5012127;28;20981;-69
2021/05/28 06:43:10;;;;;;;58.20;3.10;;;14.40;1.00;;;;;;5011940;28;20946;-69
2021/05/28 06:45:37;;;;;;;57.60;2.97;;;14.40;1.00;;;;;;5012324;28;20881;-69
2021/05/28 06:48:05;;;;;;;57.60;2.80;;;14.40;1.00;;;;;;5011790;28;20516;-68
2021/05/28 06:50:32;;;;;;;58.00;3.20;;;14.50;1.00;;;;;;5011838;28;20450;-68
2021/05/28 06:52:59;;;;;;;57.50;2.67;;;14.60;1.00;;;;;;5011744;28;20534;-68
2021/05/28 06:55:26;;;;;;;58.00;3.00;;;14.70;1.00;;;;;;5011872;28;20822;-68
2021/05/28 06:57:53;;;;;;;57.93;3.10;;;14.90;1.00;;;;;;5010474;28;20531;-68
2021/05/28 07:00:20;;;;;;;57.27;2.50;;;15.00;1.00;;;;;;5011743;28;20558;-69
2021/05/28 07:02:47;;;;;;;58.40;3.70;;;15.10;1.00;;;;;;5012059;28;20590;-68
2021/05/28 07:05:14;;;;;;;58.07;3.00;;;15.20;1.00;;;;;;5011834;28;21023;-68
2021/05/28 07:07:41;;;;;;;57.27;2.50;;;15.40;1.00;;;;;;5011597;28;20471;-68
2021/05/28 07:10:09;;;;;;;58.43;3.20;;;15.50;1.00;;;;;;5011541;28;20533;-66
2021/05/28 07:12:36;;;;;;;58.27;3.17;;;15.70;1.00;;;;;;5012014;28;20534;-66
2021/05/28 07:15:03;;;;;;;57.47;2.47;;;15.80;1.00;;;;;;5012168;28;20550;-67
2021/05/28 07:17:29;;;;;;;57.27;2.30;;;15.80;1.00;;;;;;5011361;28;20562;-67
2021/05/28 07:19:55;;;;;;;57.30;2.30;;;15.80;1.00;;;;;;5011721;28;20541;-67
2021/05/28 07:22:23;;;;;;;57.37;2.83;;;15.90;1.00;;;;;;5011655;28;20578;-67
2021/05/28 07:24:49;;;;;;;57.30;2.77;;;16.00;1.00;;;;;;5011629;28;20508;-67
2021/05/28 07:27:15;;;;;;;58.40;3.07;;;16.00;1.00;;;;;;5011690;28;20472;-67
2021/05/28 07:29:42;;;;;;;57.37;2.40;;;16.20;1.00;;;;;;5011587;28;20539;-68
2021/05/28 07:32:08;;;;;;;57.20;2.30;;;16.30;1.00;;;;;;5011552;28;20448;-68
2021/05/28 07:34:36;;;;;;;63.77;3.07;;;16.30;1.00;;;;;;5011626;28;20458;-67
2021/05/28 07:37:03;;;;;;;57.37;2.30;;;16.40;1.00;;;;;;5011093;28;21026;-67
2021/05/28 07:39:30;;;;;;;57.87;2.50;;;16.50;1.00;;;;;;5011748;28;20451;-68
2021/05/28 07:41:57;;;;;;;57.07;2.47;;;16.50;1.00;;;;;;5014190;28;20867;-68
2021/05/28 07:44:24;;;;;;;57.67;2.93;;;16.60;1.00;;;;;;5015213;28;20984;-67
2021/05/28 07:46:51;;;;;;;56.93;2.60;;;16.80;1.00;;;;;;5015113;28;20562;-68
2021/05/28 07:49:17;;;;;;;58.57;3.10;;;16.90;1.00;;;;;;5015189;28;20892;-67
2021/05/28 07:51:43;;;;;;;58.77;3.70;;;17.00;1.00;;;;;;5015023;28;20455;-67
2021/05/28 07:54:10;;;;;;;57.37;2.90;;;17.10;1.00;;;;;;5014059;28;20964;-68
2021/05/28 07:56:37;;;;;;;57.40;2.50;;;17.20;1.00;;;;;;5014790;28;20448;-67
2021/05/28 07:59:04;;;;;;;57.30;2.57;;;17.30;1.00;;;;;;5014957;28;20447;-67
2021/05/28 08:01:31;;;;;;;57.50;3.03;;;17.30;1.00;;;;;;5014813;28;20571;-67
2021/05/28 08:03:58;;;;;;;58.57;3.53;;;17.30;1.00;;;;;;5014853;28;20825;-67
2021/05/28 08:06:25;;;;;;;57.40;2.53;;;17.30;1.00;;;;;;5014308;28;20459;-68
2021/05/28 08:08:51;;;;;;;57.87;3.00;;;17.30;1.00;;;;;;5014634;28;20448;-67
2021/05/28 08:11:18;;;;;;;58.57;3.33;;;17.30;1.00;;;;;;5014772;28;20869;-67
2021/05/28 08:13:45;;;;;;;57.60;2.70;;;17.50;1.00;;;;;;5014830;28;20483;-67
2021/05/28 08:16:11;;;;;;;57.90;2.80;;;17.60;1.00;;;;;;5014354;28;20492;-67
2021/05/28 08:18:38;;;;;;;58.63;2.87;;;17.80;1.00;;;;;;5014424;28;20522;-67
2021/05/28 08:21:05;;;;;;;58.27;3.03;;;17.90;1.00;;;;;;5014368;28;20544;-68
2021/05/28 08:23:32;;;;;;;57.93;3.20;;;18.00;1.00;;;;;;5013539;28;20929;-67
2021/05/28 08:25:59;;;;;;;57.80;2.67;;;18.00;1.00;;;;;;5007654;28;20469;-67
2021/05/28 08:28:25;;;;;;;58.13;3.13;;;18.00;1.00;;;;;;4994543;28;20502;-67
2021/05/28 08:30:52;;;;;;;58.07;2.50;;;18.00;1.00;;;;;;4994767;28;20446;-67
2021/05/28 08:33:18;;;;;;;59.00;3.00;;;17.90;1.00;;;;;;4994633;28;20965;-67
2021/05/28 08:35:45;;;;;;;58.00;2.97;;;17.90;1.00;;;;;;4994941;28;20462;-68
2021/05/28 08:38:11;;;;;;;57.80;2.47;;;17.90;1.00;;;;;;4994574;28;20848;-67
2021/05/28 08:40:39;;;;;;;58.30;3.27;;;17.90;1.00;;;;;;4994523;28;20493;-68
2021/05/28 08:43:07;;;;;;;57.90;3.00;;;17.90;1.00;;;;;;4994374;28;21020;-68
2021/05/28 08:45:35;;;;;;;57.60;2.70;;;18.10;1.00;;;;;;4994444;28;20454;-67
2021/05/28 08:48:03;;;;;;;57.87;2.97;;;18.30;1.00;;;;;;4994049;28;20624;-67
2021/05/28 08:50:30;;;;;;;57.77;2.80;;;18.40;1.00;;;;;;4994528;28;20461;-67
2021/05/28 08:52:56;;;;;;;57.50;2.63;;;18.50;1.00;;;;;;4994222;28;20446;-67
2021/05/28 08:55:22;;;;;;;62.10;3.50;;;18.50;1.00;;;;;;4993053;28;20545;-67
2021/05/28 08:57:49;;;;;;;58.40;3.10;;;18.70;1.00;;;;;;5007709;28;20473;-67
2021/05/28 09:00:16;;;;;;;58.97;3.97;;;18.80;1.00;;;;;;5013584;28;20458;-67
2021/05/28 09:02:42;;;;;;;58.27;2.90;;;19.00;1.00;;;;;;5013540;28;20903;-67
2021/05/28 09:05:13;;;;;;;58.37;3.03;;;19.10;1.00;;;;;;5013847;28;20504;-67
2021/05/28 09:07:41;;;;;;;57.23;2.50;;;19.00;1.00;;;;;;5013010;28;20466;-68
2021/05/28 09:10:27;;;;;;;57.60;2.70;;;19.00;1.00;;;;;;5014051;28;20457;-68
2021/05/28 09:12:53;;;;;;;58.20;3.10;;;19.10;1.00;;;;;;5013579;28;20453;-67
2021/05/28 09:15:21;;;;;;;57.60;2.90;;;19.10;1.00;;;;;;5013409;28;20540;-66
2021/05/28 09:17:48;;;;;;;57.70;2.60;;;19.20;1.00;;;;;;5013119;28;20465;-67
2021/05/28 09:20:16;;;;;;;57.80;2.60;;;19.40;1.00;;;;;;5007741;28;21002;-68
2021/05/28 09:22:42;;;;;;;57.97;2.90;;;19.60;1.00;;;;;;5000546;28;20649;-68
2021/05/28 09:25:09;;;;;;;57.30;2.37;;;19.70;1.00;;;;;;5013427;28;20482;-67
2021/05/28 09:27:37;;;;;;;58.33;2.67;;;19.70;1.00;;;;;;5012900;28;21137;-68
2021/05/28 09:30:08;;;;;;;57.77;2.93;;;19.80;1.00;;;;;;5013315;28;20474;-68
2021/05/28 09:32:36;;;;;;;57.50;2.40;;;19.90;1.00;;;;;;5013296;28;20446;-67
2021/05/28 09:35:03;;;;;;;57.83;3.10;;;19.90;1.00;;;;;;5013616;28;20447;-68
2021/05/28 09:37:39;;;;;;;57.20;2.50;;;20.20;1.00;;;;;;5013091;28;20524;-67
2021/05/28 09:40:09;;;;;;;57.33;2.53;;;20.40;1.00;;;;;;5013182;28;20480;-67
2021/05/28 09:42:50;;;;;;;57.00;2.53;;;20.40;1.00;;;;;;5013397;28;20483;-68
2021/05/28 09:45:22;;;;;;;59.17;2.47;;;20.40;1.00;;;;;;5013341;28;20837;-68
2021/05/28 09:47:48;;;;;;;58.40;3.47;;;20.30;1.00;;;;;;5013015;28;20588;-67
2021/05/28 09:50:15;;;;;;;56.97;2.63;;;20.30;1.00;;;;;;5012908;28;20539;-67
2021/05/28 09:52:42;;;;;;;58.30;3.30;;;20.30;1.00;;;;;;5011774;28;20534;-67
2021/05/28 09:55:10;;;;;;;57.67;2.90;;;20.40;1.00;;;;;;5012752;28;20487;-68
2021/05/28 09:57:39;;;;;;;57.27;2.50;;;20.40;1.00;;;;;;5012521;28;20556;-68
2021/05/28 10:00:08;;;;;;;57.50;2.40;;;20.60;1.00;;;;;;5012626;28;20837;-67
2021/05/28 10:02:40;;;;;;;57.17;2.50;;;20.70;1.00;;;;;;5012631;28;20955;-67
2021/05/28 10:05:07;;;;;;;57.70;2.60;;;21.00;1.00;;;;;;5011945;28;20458;-67
2021/05/28 10:07:36;;;;;;;57.57;2.50;;;21.20;1.00;;;;;;5012301;28;20482;-67
2021/05/28 10:10:05;;;;;;;56.97;2.50;;;21.20;1.00;;;;;;5012635;28;20836;-67
2021/05/28 10:12:32;;;;;;;57.23;2.67;;;21.20;1.00;;;;;;5012562;28;20602;-67
2021/05/28 10:14:59;;;;;;;57.97;2.83;;;21.10;1.00;;;;;;5012481;28;21131;-68
2021/05/28 10:17:25;;;;;;;57.57;2.70;;;21.10;1.00;;;;;;5012022;28;20469;-67
2021/05/28 10:19:51;;;;;;;57.40;2.70;;;21.00;1.00;;;;;;5012257;28;20491;-67
2021/05/28 10:22:21;;;;;;;58.80;3.30;;;20.90;1.00;;;;;;5010980;28;20630;-67
2021/05/28 10:24:47;;;;;;;57.47;2.70;;;21.10;1.00;;;;;;5012292;28;20827;-67
2021/05/28 10:27:21;;;;;;;57.80;2.67;;;21.70;1.00;;;;;;5012168;28;21039;-68
2021/05/28 10:29:50;;;;;;;57.67;2.43;;;23.20;1.00;;;;;;5012126;28;20545;-67
2021/05/28 10:32:16;;;;;;;57.77;2.80;;;24.60;1.00;;;;;;5012132;28;20480;-67
2021/05/28 10:35:02;;;;;;;58.30;3.00;;;;;;;;;;5012091;28;20537;-68
2021/05/28 10:37:28;;;;;;;57.60;2.53;;;26.70;1.00;;;;;;5011785;28;20474;-67
2021/05/28 10:39:55;;;;;;;57.30;2.27;;;27.40;1.00;;;;;;5012112;28;20448;-66
2021/05/28 10:42:23;;;;;;;57.43;2.00;;;26.60;1.00;;;;;;5012091;28;20482;-68
2021/05/28 10:44:49;;;;;;;57.13;2.30;;;25.50;1.00;;;;;;5012000;28;21029;-68
2021/05/28 10:47:20;;;;;;;57.33;2.20;;;24.40;1.00;;;;;;5011771;28;20508;-68
2021/05/28 10:49:47;;;;;;;57.37;2.10;;;23.70;1.00;;;;;;5011923;28;21047;-67
2021/05/28 10:52:17;;;;;;;57.40;2.47;;;23.20;1.00;;;;;;5011974;28;20881;-67
2021/05/28 10:54:55;;;;;;;57.23;2.17;;;23.00;1.00;;;;;;5010973;28;20450;-68
2021/05/28 10:57:54;;;;;;;57.30;2.20;;;23.10;1.00;;;;;;5011582;28;20589;-67
2021/05/28 11:00:23;;;;;;;57.80;3.00;;;23.10;1.00;;;;;;5011948;28;20462;-67
2021/05/28 11:02:55;;;;;;;57.20;2.33;;;23.60;1.00;;;;;;5011815;28;20489;-68
2021/05/28 11:05:41;;;;;;;57.27;1.90;;;23.60;1.00;;;;;;5011772;28;20458;-68
2021/05/28 11:08:41;;;;;;;57.50;2.40;;;23.20;1.00;;;;;;5004461;28;20559;-68
2021/05/28 11:11:08;;;;;;;57.70;2.40;;;23.00;1.00;;;;;;5012113;28;20454;-68
2021/05/28 11:13:57;;;;;;;56.80;2.30;;;22.60;1.00;;;;;;5011670;28;20446;-68
2021/05/28 11:16:24;;;;;;;57.90;3.10;;;22.40;1.00;;;;;;5015237;28;20445;-67
2021/05/28 11:18:52;;;;;;;58.20;2.90;;;22.10;1.00;;;;;;5015799;28;20480;-68
2021/05/28 11:21:20;;;;;;;57.37;2.30;;;21.90;1.00;;;;;;5015755;28;20449;-67
2021/05/28 11:23:47;;;;;;;57.47;2.60;;;21.70;1.00;;;;;;5014610;28;20584;-68
2021/05/28 11:26:16;;;;;;;58.23;3.43;;;21.90;1.00;;;;;;5015292;28;20441;-67
2021/05/28 11:28:53;;;;;;;57.23;2.50;;;22.40;1.00;;;;;;5015378;28;20524;-67
2021/05/28 11:31:22;;;;;;;57.37;2.20;;;24.00;1.00;;;;;;5015632;28;20957;-68
2021/05/28 11:33:56;;;;;;;57.83;2.20;;;24.70;1.00;;;;;;5015519;28;20519;-68
2021/05/28 11:36:41;;;;;;;57.13;2.20;;;;;;;;;;5015307;28;20452;-68
2021/05/28 11:39:24;;;;;;;57.57;2.40;;;27.50;1.00;;;;;;5015403;28;20965;-68
2021/05/28 11:41:59;;;;;;;57.30;2.10;;;29.20;1.00;;;;;;5014041;28;21008;-68
2021/05/28 11:44:27;;;;;;;57.10;2.20;;;30.30;1.00;;;;;;5015417;28;20570;-68
2021/05/28 11:46:55;;;;;;;56.97;2.00;;;31.40;1.00;;;;;;5014915;28;20469;-65
2021/05/28 11:49:24;;;;;;;57.07;2.30;;;31.60;1.00;;;;;;5014937;28;20457;-65
2021/05/28 11:51:59;;;;;;;56.97;2.10;;;31.70;1.00;;;;;;5015291;28;20540;-65
2021/05/28 11:54:28;;;;;;;56.87;1.90;;;30.70;1.00;;;;;;5014163;28;20450;-66
2021/05/28 11:56:56;;;;;;;57.30;2.10;;;29.20;1.00;;;;;;5014532;28;20556;-66
2021/05/28 11:59:50;;;;;;;57.57;2.03;;;27.90;1.00;;;;;;5014900;28;20463;-67
2021/05/28 12:02:38;;;;;;;58.63;2.10;;;27.00;1.00;;;;;;5014950;28;20486;-66
2021/05/28 12:05:05;;;;;;;57.03;1.97;;;27.50;1.00;;;;;;5015285;28;20809;-66
2021/05/28 12:07:32;;;;;;;56.80;1.90;;;28.90;1.00;;;;;;5014650;28;20471;-66
2021/05/28 12:10:04;;;;;;;56.67;1.90;;;30.20;1.00;;;;;;5014617;28;20550;-67
2021/05/28 12:12:58;;;;;;;56.80;2.10;;;31.30;1.00;;;;;;5014918;28;20942;-66
2021/05/28 12:15:26;;;;;;;59.10;2.57;;;32.40;1.00;;;;;;5014870;28;20536;-67
2021/05/28 12:17:54;;;;;;;56.93;2.00;;;33.40;1.00;;;;;;5014251;28;20549;-67
2021/05/28 12:20:23;;;;;;;57.03;2.07;;;33.90;1.00;;;;;;5014687;28;20453;-67
2021/05/28 12:23:04;;;;;;;57.07;2.10;;;34.20;1.00;;;;;;5014503;28;20564;-67
2021/05/28 12:25:33;;;;;;;56.93;2.17;;;34.00;1.00;;;;;;5013094;28;20728;-67
2021/05/28 12:28:14;;;;;;;56.93;2.20;;;33.80;1.00;;;;;;5007297;28;20558;-66
2021/05/28 12:30:44;;;;;;;56.97;2.00;;;32.70;1.00;;;;;;4994818;28;20455;-67
2021/05/28 12:33:12;;;;;;;56.80;2.00;;;32.80;1.00;;;;;;4994609;28;20557;-66
2021/05/28 12:35:39;;;;;;;56.87;2.30;;;33.50;1.00;;;;;;4995013;28;20541;-66
2021/05/28 12:38:08;;;;;;;57.10;2.20;;;33.90;1.00;;;;;;4994585;28;20474;-66
2021/05/28 12:40:36;;;;;;;57.30;2.50;;;34.00;1.00;;;;;;4994507;28;21014;-66
2021/05/28 12:43:04;;;;;;;56.90;2.00;;;33.60;1.00;;;;;;4994581;28;20479;-66
2021/05/28 12:45:39;;;;;;;57.10;2.17;;;32.10;1.00;;;;;;4994371;28;20462;-66
2021/05/28 12:48:06;;;;;;;57.40;2.30;;;30.20;1.00;;;;;;4994299;28;20626;-66
2021/05/28 12:50:36;;;;;;;57.60;2.30;;;28.80;1.00;;;;;;4994502;28;20497;-66
2021/05/28 12:53:04;;;;;;;57.70;2.40;;;27.60;1.00;;;;;;4994439;28;20577;-66